Hillsboro, Kentucky
Current Conditions -  °F | °C
As of 7:50 PM on Monday 22 Dec 2014 (Local Time) from KSYM Reporting Station
Broken Clouds Broken Clouds  
Wind Chill: 52°   Ceiling: 9000
Heat Index: 52°   Visibility: 10mi
Dew Point: 41°   Wind: 7mph
Humidity: 67%   Direction: NA
Pressure: 29.82"   Gusts: 13mph
Location:  38.29°N, 83.66°W
Report Text: KSYM 230050Z AUTO VRB06G11KT 10SM FEW044 SCT075 BKN090 11/05 A2982 RMK AO2
Loading
Personal Weather Stations






























Interactive Weather Map New forecast layout! Learn more

10-Day Weather Forecast

Advertisements
Track Severe Weather on mobile